Time;durP1;ratioP1;P1;durP2;ratioP2;P2;SDS_P1;SDS_P2;PMS_P1;PMS_P2;Temp;Humidity;BMP_temperature;BMP_pressure;BME280_temperature;BME280_humidity;BME280_pressure;Samples;Min_cycle;Max_cycle;Signal;HPM_P1;HPM_P2
2022/01/23 00:01:44;;;;;;;15.90;12.23;;;4.40;99.90;;;;;;5113698;28;20462;-65
2022/01/23 00:04:11;;;;;;;18.77;11.97;;;4.40;99.90;;;;;;5114396;28;20570;-66
2022/01/23 00:06:38;;;;;;;14.40;10.30;;;4.40;99.90;;;;;;5114618;28;20524;-65
2022/01/23 00:09:05;;;;;;;15.03;12.10;;;4.40;99.90;;;;;;5114320;28;20530;-66
2022/01/23 00:11:39;;;;;;;13.27;10.50;;;4.30;99.90;;;;;;5114338;28;20856;-67
2022/01/23 00:19:34;;;;;;;15.30;10.80;;;4.30;99.90;;;;;;5113628;28;20610;-67
2022/01/23 00:22:02;;;;;;;16.00;11.17;;;4.30;99.90;;;;;;5113788;28;21004;-65
2022/01/23 00:32:43;;;;;;;15.07;10.50;;;4.30;99.90;;;;;;5106547;28;20514;-63
2022/01/23 00:35:10;;;;;;;15.80;10.40;;;4.30;99.90;;;;;;5106129;28;20442;-63
2022/01/23 00:37:37;;;;;;;14.80;10.00;;;4.30;99.90;;;;;;5106520;28;20812;-63
2022/01/23 00:40:04;;;;;;;15.20;11.67;;;4.20;99.90;;;;;;5106097;28;20507;-63
2022/01/23 00:42:33;;;;;;;14.30;10.03;;;4.20;99.90;;;;;;5106355;28;20989;-62
2022/01/23 00:45:14;;;;;;;17.53;11.60;;;4.20;99.90;;;;;;5106345;28;20457;-63
2022/01/23 00:47:41;;;;;;;14.40;10.33;;;4.30;99.90;;;;;;5106088;28;20838;-63
2022/01/23 00:50:08;;;;;;;14.80;10.53;;;4.30;99.90;;;;;;5098551;28;20442;-64
2022/01/23 00:52:35;;;;;;;15.07;10.80;;;4.30;99.90;;;;;;5092755;28;20944;-64
2022/01/23 00:55:04;;;;;;;13.20;9.60;;;4.30;99.90;;;;;;5092649;28;20519;-64
2022/01/23 00:57:33;;;;;;;14.30;11.10;;;4.30;99.90;;;;;;5092563;28;20474;-64
2022/01/23 01:00:00;;;;;;;11.60;9.70;;;4.40;99.90;;;;;;5092184;28;20474;-64
2022/01/23 01:02:28;;;;;;;15.10;10.60;;;4.30;99.90;;;;;;5092137;28;20463;-64
2022/01/23 01:04:55;;;;;;;16.30;10.63;;;4.30;99.90;;;;;;5092221;28;20500;-63
2022/01/23 01:07:22;;;;;;;17.10;12.20;;;4.40;99.90;;;;;;5092468;28;20442;-63
2022/01/23 01:09:51;;;;;;;14.77;11.00;;;4.30;99.90;;;;;;5092358;28;20442;-64
2022/01/23 01:12:20;;;;;;;16.47;11.53;;;4.30;99.90;;;;;;5092133;28;20557;-66
2022/01/23 01:15:12;;;;;;;17.90;11.37;;;4.30;99.90;;;;;;5092008;28;20892;-64
2022/01/23 01:30:16;;;;;;;16.23;10.93;;;4.30;99.90;;;;;;5092081;28;20489;-64
2022/01/23 01:31:30;;;;;;;18.30;13.20;;;4.40;99.90;;;;;;5091505;28;20505;-62
2022/01/23 01:34:04;;;;;;;18.20;12.63;;;4.30;99.90;;;;;;5091851;28;20491;-63
2022/01/23 01:36:36;;;;;;;16.50;12.30;;;4.30;99.90;;;;;;5092018;28;20454;-63
2022/01/23 01:39:05;;;;;;;16.80;12.50;;;4.30;99.90;;;;;;5091762;28;20505;-63
2022/01/23 01:41:35;;;;;;;18.13;12.77;;;4.40;99.90;;;;;;5091570;28;20574;-63
2022/01/23 01:44:01;;;;;;;20.87;14.00;;;4.30;99.90;;;;;;5092183;28;20449;-63
2022/01/23 01:46:30;;;;;;;17.63;13.07;;;4.30;99.90;;;;;;5092116;28;20457;-63
2022/01/23 01:48:57;;;;;;;22.40;14.77;;;4.30;99.90;;;;;;5091690;28;20530;-63
2022/01/23 01:51:29;;;;;;;19.70;13.40;;;4.20;99.90;;;;;;5091484;28;20458;-63
2022/01/23 01:54:03;;;;;;;19.83;13.23;;;4.20;99.90;;;;;;5091754;28;20968;-63
2022/01/23 01:56:36;;;;;;;19.57;14.43;;;4.20;99.90;;;;;;5091474;28;20804;-63
2022/01/23 01:59:17;;;;;;;17.17;13.03;;;4.20;99.90;;;;;;5091641;28;21069;-63
2022/01/23 02:10:02;;;;;;;17.07;12.83;;;4.20;99.90;;;;;;5090925;28;20414;-63
2022/01/23 02:18:14;;;;;;;24.80;14.83;;;4.20;99.90;;;;;;5086980;28;20487;-63
2022/01/23 02:23:54;;;;;;;20.43;14.53;;;4.20;99.90;;;;;;5091009;28;20888;-62
2022/01/23 02:51:12;;;;;;;20.53;13.63;;;4.30;99.90;;;;;;5090259;28;20469;-62
2022/01/23 02:54:05;;;;;;;19.73;16.27;;;4.30;99.90;;;;;;5090376;28;20515;-62
2022/01/23 02:56:35;;;;;;;20.60;14.10;;;4.30;99.90;;;;;;5089847;28;20430;-62
2022/01/23 02:59:12;;;;;;;21.97;14.50;;;4.30;99.90;;;;;;5089990;28;20478;-62
2022/01/23 03:01:48;;;;;;;21.90;14.67;;;4.30;99.90;;;;;;5090150;28;20473;-62
2022/01/23 03:04:20;;;;;;;21.17;14.07;;;4.30;99.90;;;;;;5090531;28;20457;-63
2022/01/23 03:06:57;;;;;;;21.07;14.60;;;4.30;99.90;;;;;;5090159;28;20447;-63
2022/01/23 03:13:11;;;;;;;19.57;13.93;;;4.30;99.90;;;;;;5090055;28;20556;-62
2022/01/23 03:15:19;;;;;;;21.03;14.23;;;4.30;99.90;;;;;;5089691;28;20468;-63
2022/01/23 03:26:18;;;;;;;19.47;14.37;;;4.30;99.90;;;;;;5089824;28;20510;-63
2022/01/23 03:29:05;;;;;;;26.23;16.00;;;4.20;99.90;;;;;;5089982;28;20446;-62
2022/01/23 03:31:41;;;;;;;21.47;15.63;;;4.30;99.90;;;;;;5089550;28;20514;-63
2022/01/23 03:34:08;;;;;;;23.97;15.83;;;4.30;99.90;;;;;;5089935;28;20454;-62
2022/01/23 03:36:37;;;;;;;25.00;17.33;;;4.20;99.90;;;;;;5089833;28;20458;-62
2022/01/23 03:39:07;;;;;;;24.73;17.43;;;4.20;99.90;;;;;;5089368;28;20490;-62
2022/01/23 03:41:36;;;;;;;26.80;17.40;;;4.10;99.90;;;;;;5089497;28;20964;-62
2022/01/23 03:44:05;;;;;;;25.80;18.10;;;4.10;99.90;;;;;;5089641;28;20454;-62
2022/01/23 03:46:47;;;;;;;24.67;15.70;;;4.20;99.90;;;;;;5089782;28;20481;-63
2022/01/23 03:49:31;;;;;;;25.70;18.17;;;4.20;99.90;;;;;;5089524;28;20479;-62
2022/01/23 03:51:59;;;;;;;23.30;16.27;;;4.10;99.90;;;;;;5089610;28;20611;-62
2022/01/23 03:54:27;;;;;;;21.67;16.10;;;4.10;99.90;;;;;;5089480;28;20477;-61
2022/01/23 03:56:56;;;;;;;26.53;17.73;;;4.10;99.90;;;;;;5089576;28;20453;-62
2022/01/23 03:59:23;;;;;;;26.13;16.43;;;4.10;99.90;;;;;;5089204;28;20841;-62
2022/01/23 04:01:50;;;;;;;23.73;16.50;;;4.10;99.90;;;;;;5089754;28;20462;-62
2022/01/23 04:04:29;;;;;;;27.60;17.63;;;4.10;99.90;;;;;;5089742;28;20464;-62
2022/01/23 04:06:56;;;;;;;24.60;17.23;;;4.10;99.90;;;;;;5089496;28;20507;-62
2022/01/23 04:09:23;;;;;;;23.83;16.60;;;4.10;99.90;;;;;;5088961;28;20924;-62
2022/01/23 04:11:51;;;;;;;26.27;17.10;;;4.10;99.90;;;;;;5089342;28;20542;-61
2022/01/23 04:14:22;;;;;;;24.30;16.87;;;4.10;99.90;;;;;;5089337;28;20454;-63
2022/01/23 04:19:57;;;;;;;24.40;16.07;;;4.10;99.90;;;;;;5064097;28;20491;-62
2022/01/23 05:00:53;;;;;;;28.73;19.60;;;4.00;99.90;;;;;;5092166;28;20476;-62
2022/01/23 05:06:08;;;;;;;22.93;16.30;;;4.00;99.90;;;;;;5092090;28;20422;-64
2022/01/23 05:08:37;;;;;;;27.83;15.20;;;4.00;99.90;;;;;;5092135;28;21217;-63
2022/01/23 05:11:07;;;;;;;22.30;16.07;;;4.00;99.90;;;;;;5091858;28;20550;-63
2022/01/23 05:13:34;;;;;;;25.63;16.13;;;4.00;99.90;;;;;;5092228;28;20465;-63
2022/01/23 05:16:01;;;;;;;30.13;19.20;;;4.00;99.90;;;;;;5092043;28;20889;-63
2022/01/23 05:18:29;;;;;;;27.93;18.07;;;4.10;99.90;;;;;;5091532;28;20503;-63
2022/01/23 05:21:07;;;;;;;31.43;18.50;;;4.10;99.90;;;;;;5091317;28;20493;-63
2022/01/23 05:23:34;;;;;;;26.00;18.60;;;4.10;99.90;;;;;;5091858;28;20545;-62
2022/01/23 05:26:01;;;;;;;24.23;17.27;;;4.10;99.90;;;;;;5091567;28;20453;-63
2022/01/23 05:28:28;;;;;;;27.67;18.00;;;4.00;99.90;;;;;;5091730;28;20454;-63
2022/01/23 05:30:54;;;;;;;24.30;17.17;;;4.10;99.90;;;;;;5091154;28;20442;-62
2022/01/23 05:33:21;;;;;;;30.17;18.50;;;4.10;99.90;;;;;;5091392;28;20987;-63
2022/01/23 05:35:49;;;;;;;30.40;20.07;;;4.10;99.90;;;;;;5091344;28;20473;-63
2022/01/23 05:38:16;;;;;;;30.53;20.97;;;4.00;99.90;;;;;;5091324;28;20473;-62
2022/01/23 05:40:44;;;;;;;32.10;19.00;;;4.00;99.90;;;;;;5090928;28;21019;-63
2022/01/23 05:43:11;;;;;;;25.90;18.10;;;4.10;99.90;;;;;;5091455;28;21389;-63
2022/01/23 05:45:41;;;;;;;24.57;17.10;;;4.10;99.90;;;;;;5091517;28;20795;-62
2022/01/23 05:48:09;;;;;;;30.30;21.07;;;4.10;99.90;;;;;;5091735;28;20504;-62
2022/01/23 05:50:36;;;;;;;32.73;20.17;;;4.00;99.90;;;;;;5090961;28;20504;-62
2022/01/23 05:53:04;;;;;;;30.10;19.83;;;4.00;99.90;;;;;;5090935;28;20997;-63
2022/01/23 05:55:31;;;;;;;31.00;19.90;;;4.00;99.90;;;;;;5091070;28;20462;-64
2022/01/23 05:57:58;;;;;;;29.53;18.63;;;4.00;99.90;;;;;;5090756;28;21012;-63
2022/01/23 06:00:25;;;;;;;30.73;18.97;;;4.00;99.90;;;;;;5090824;28;20484;-63
2022/01/23 06:02:52;;;;;;;26.17;17.50;;;4.00;99.90;;;;;;5090656;28;20473;-63
2022/01/23 06:05:19;;;;;;;28.20;16.60;;;3.90;99.90;;;;;;5090901;28;20461;-63
2022/01/23 06:07:48;;;;;;;26.47;19.90;;;4.00;99.90;;;;;;5090811;28;20446;-63
2022/01/23 06:10:22;;;;;;;29.10;19.33;;;3.90;99.90;;;;;;5090564;28;20880;-64
2022/01/23 06:12:49;;;;;;;29.87;19.40;;;4.00;99.90;;;;;;5090852;28;20478;-63
2022/01/23 06:15:16;;;;;;;32.87;19.20;;;4.00;99.90;;;;;;5090350;28;20546;-63
2022/01/23 06:17:44;;;;;;;31.00;19.13;;;4.00;99.90;;;;;;5090428;28;20453;-63
2022/01/23 06:20:13;;;;;;;33.13;19.80;;;4.00;99.90;;;;;;5089957;28;20616;-62
2022/01/23 06:22:42;;;;;;;30.10;20.37;;;4.00;99.90;;;;;;5090215;28;20513;-63
2022/01/23 06:25:12;;;;;;;30.00;19.63;;;4.00;99.90;;;;;;5090177;28;20447;-63
2022/01/23 06:27:41;;;;;;;31.20;20.00;;;3.80;99.90;;;;;;5090486;28;20530;-63
2022/01/23 06:30:09;;;;;;;30.97;20.50;;;3.90;99.90;;;;;;5089919;28;20456;-63
2022/01/23 06:32:36;;;;;;;32.17;19.83;;;3.90;99.90;;;;;;5090101;28;20511;-63
2022/01/23 06:35:03;;;;;;;30.53;18.97;;;3.90;99.90;;;;;;5090074;28;20525;-63
2022/01/23 06:37:30;;;;;;;30.87;18.73;;;4.00;99.90;;;;;;5090003;28;20552;-63
2022/01/23 06:39:57;;;;;;;27.10;18.40;;;4.00;99.90;;;;;;5089541;28;20665;-63
2022/01/23 06:42:23;;;;;;;31.37;20.57;;;4.00;99.90;;;;;;5090088;28;20458;-63
2022/01/23 06:44:52;;;;;;;29.90;19.50;;;4.10;99.90;;;;;;5090017;28;20451;-62
2022/01/23 06:47:19;;;;;;;27.13;18.10;;;4.00;99.90;;;;;;5089355;28;20533;-63
2022/01/23 06:49:46;;;;;;;33.90;21.83;;;3.90;99.90;;;;;;5089535;28;20446;-63
2022/01/23 06:52:13;;;;;;;31.27;19.30;;;4.00;99.90;;;;;;5089603;28;20462;-63
2022/01/23 06:54:39;;;;;;;32.60;20.47;;;4.00;99.90;;;;;;5089661;28;20445;-63
2022/01/23 06:57:07;;;;;;;30.67;22.07;;;3.90;99.90;;;;;;5089644;28;21002;-63
2022/01/23 06:59:34;;;;;;;29.93;21.73;;;3.90;99.90;;;;;;5089528;28;20493;-63
2022/01/23 07:02:03;;;;;;;33.87;23.50;;;3.90;99.90;;;;;;5089664;28;20468;-62
2022/01/23 07:04:30;;;;;;;31.70;21.47;;;3.90;99.90;;;;;;5089594;28;20940;-63
2022/01/23 07:06:57;;;;;;;33.90;21.70;;;3.90;99.90;;;;;;5089722;28;20457;-63
2022/01/23 07:09:23;;;;;;;33.43;20.90;;;3.90;99.90;;;;;;5089630;28;20445;-63
2022/01/23 07:11:50;;;;;;;32.90;21.10;;;3.90;99.90;;;;;;5089640;28;20498;-63
2022/01/23 07:14:17;;;;;;;30.63;20.60;;;3.90;99.90;;;;;;5089647;28;20824;-63
2022/01/23 07:16:44;;;;;;;32.07;21.07;;;4.00;99.90;;;;;;5089384;28;20450;-62
2022/01/23 07:19:12;;;;;;;29.53;18.60;;;4.00;99.90;;;;;;5089178;28;20442;-62
2022/01/23 07:21:39;;;;;;;33.97;21.00;;;4.00;99.90;;;;;;5089377;28;20486;-62
2022/01/23 07:24:07;;;;;;;31.73;19.43;;;4.00;99.90;;;;;;5089564;28;20843;-62
2022/01/23 07:26:35;;;;;;;27.40;19.30;;;4.10;99.90;;;;;;5089205;28;20493;-63
2022/01/23 07:29:03;;;;;;;31.60;19.50;;;4.10;99.90;;;;;;5089168;28;20451;-62
2022/01/23 07:34:15;;;;;;;26.80;17.00;;;4.10;99.90;;;;;;5081653;28;20790;-62
2022/01/23 07:36:42;;;;;;;26.70;18.10;;;4.20;99.90;;;;;;5089168;28;20474;-63
2022/01/23 07:39:09;;;;;;;29.70;20.50;;;4.20;99.90;;;;;;5088752;28;20454;-62
2022/01/23 07:41:36;;;;;;;32.90;20.80;;;4.20;99.90;;;;;;5089050;28;20486;-62
2022/01/23 07:44:03;;;;;;;34.73;21.60;;;4.30;99.90;;;;;;5089029;28;20952;-63
2022/01/23 07:46:30;;;;;;;35.23;20.37;;;4.30;99.90;;;;;;5088723;28;20446;-62
2022/01/23 07:48:57;;;;;;;28.63;20.10;;;4.30;99.90;;;;;;5088966;28;20881;-63
2022/01/23 07:51:25;;;;;;;29.00;20.13;;;4.30;99.90;;;;;;5088537;28;20458;-62
2022/01/23 07:53:52;;;;;;;29.30;21.37;;;4.30;99.90;;;;;;5088582;28;20454;-62
2022/01/23 07:56:19;;;;;;;29.27;20.67;;;4.30;99.90;;;;;;5088735;28;20529;-62
2022/01/23 07:58:46;;;;;;;35.17;20.90;;;4.20;99.90;;;;;;5088662;28;20469;-63
2022/01/23 08:01:13;;;;;;;33.40;22.77;;;4.20;99.90;;;;;;5091647;28;20923;-62
2022/01/23 08:03:40;;;;;;;32.53;21.80;;;4.20;99.90;;;;;;5092817;28;20457;-62
2022/01/23 08:06:07;;;;;;;33.00;22.27;;;4.20;99.90;;;;;;5092699;28;20452;-62
2022/01/23 08:08:35;;;;;;;31.63;21.20;;;4.20;99.90;;;;;;5092665;28;20483;-62
2022/01/23 08:11:02;;;;;;;33.80;21.40;;;4.30;99.90;;;;;;5092335;28;20442;-62
2022/01/23 08:13:29;;;;;;;32.83;21.40;;;4.30;99.90;;;;;;5092561;28;20825;-62
2022/01/23 08:15:56;;;;;;;37.30;23.80;;;4.40;99.90;;;;;;5092584;28;20476;-63
2022/01/23 08:18:23;;;;;;;34.50;22.77;;;4.60;99.90;;;;;;5092591;28;20841;-62
2022/01/23 08:20:50;;;;;;;33.53;22.03;;;4.50;99.90;;;;;;5092215;28;20474;-62
2022/01/23 08:23:18;;;;;;;33.83;21.57;;;4.60;99.90;;;;;;5092598;28;20462;-63
2022/01/23 08:25:46;;;;;;;31.87;21.40;;;4.60;99.90;;;;;;5092271;28;20480;-63
2022/01/23 08:28:13;;;;;;;32.30;22.90;;;4.70;99.90;;;;;;5092321;28;20440;-62
2022/01/23 08:30:39;;;;;;;27.23;19.47;;;4.80;99.90;;;;;;5091889;28;20951;-63
2022/01/23 08:33:06;;;;;;;33.43;23.10;;;4.90;99.90;;;;;;5092160;28;20493;-63
2022/01/23 08:35:33;;;;;;;32.00;21.60;;;5.00;99.90;;;;;;5092344;28;20449;-62
2022/01/23 08:38:00;;;;;;;33.10;21.40;;;5.00;99.90;;;;;;5092131;28;20553;-62
2022/01/23 08:40:46;;;;;;;31.80;21.83;;;5.10;99.90;;;;;;5091793;28;20851;-62
2022/01/23 08:43:17;;;;;;;31.20;20.50;;;5.20;99.90;;;;;;5092419;28;20820;-63
2022/01/23 08:45:44;;;;;;;32.30;21.80;;;5.30;99.90;;;;;;5091982;28;21031;-63
2022/01/23 08:48:11;;;;;;;29.40;21.40;;;5.50;99.90;;;;;;5092005;28;20460;-63
2022/01/23 08:50:39;;;;;;;28.47;20.30;;;5.60;99.90;;;;;;5091696;28;20529;-62
2022/01/23 08:53:06;;;;;;;28.50;19.57;;;5.80;99.90;;;;;;5091763;28;21329;-63
2022/01/23 08:55:33;;;;;;;28.10;20.00;;;5.80;99.90;;;;;;5092247;28;20445;-63
2022/01/23 08:58:00;;;;;;;26.83;19.70;;;5.80;99.90;;;;;;5092080;28;20873;-63
2022/01/23 09:00:28;;;;;;;27.83;20.20;;;5.80;99.90;;;;;;5091621;28;20478;-62
2022/01/23 09:02:56;;;;;;;26.60;18.90;;;5.70;99.90;;;;;;5091704;28;20471;-62
2022/01/23 09:05:23;;;;;;;26.03;20.17;;;5.80;99.90;;;;;;5092013;28;20454;-63
2022/01/23 09:07:50;;;;;;;27.90;19.83;;;6.00;99.90;;;;;;5092020;28;20447;-63
2022/01/23 09:10:24;;;;;;;28.83;20.63;;;6.20;99.90;;;;;;5091066;28;20438;-63
2022/01/23 09:13:07;;;;;;;26.10;19.40;;;6.30;99.90;;;;;;5091740;28;20473;-63
2022/01/23 09:15:36;;;;;;;29.10;19.97;;;6.40;99.90;;;;;;5091573;28;20536;-63
2022/01/23 09:18:03;;;;;;;28.10;20.60;;;6.50;99.90;;;;;;5091502;28;20443;-63
2022/01/23 09:20:30;;;;;;;32.60;20.67;;;6.60;99.90;;;;;;5091316;28;20488;-62
2022/01/23 09:22:57;;;;;;;27.10;20.40;;;6.70;99.90;;;;;;5091481;28;20476;-63
2022/01/23 09:25:24;;;;;;;27.27;20.13;;;6.80;99.90;;;;;;5091213;28;20442;-63
2022/01/23 09:27:52;;;;;;;24.10;20.53;;;6.70;99.90;;;;;;5091453;28;20541;-62
2022/01/23 09:30:20;;;;;;;30.00;20.93;;;6.70;99.90;;;;;;5090853;28;20454;-62
2022/01/23 09:32:49;;;;;;;31.00;22.60;;;6.80;99.90;;;;;;5091176;28;20968;-62
2022/01/23 09:35:18;;;;;;;28.73;19.80;;;7.10;99.90;;;;;;5091425;28;20457;-62
2022/01/23 09:37:45;;;;;;;26.50;20.37;;;7.20;99.90;;;;;;5091163;28;20443;-61
2022/01/23 09:40:13;;;;;;;25.70;21.13;;;7.30;99.90;;;;;;5090745;28;20465;-62
2022/01/23 09:42:49;;;;;;;28.00;20.60;;;7.30;99.90;;;;;;5091258;28;20470;-62
2022/01/23 09:45:15;;;;;;;27.23;20.90;;;7.40;99.90;;;;;;5091181;28;20450;-62
2022/01/23 09:47:43;;;;;;;30.60;20.90;;;7.40;99.90;;;;;;5091488;28;20530;-62
2022/01/23 09:50:13;;;;;;;27.10;20.30;;;7.50;99.90;;;;;;5091026;28;20451;-62
2022/01/23 09:52:41;;;;;;;23.60;17.90;;;7.70;99.90;;;;;;5091012;28;20991;-62
2022/01/23 09:55:12;;;;;;;29.17;20.80;;;7.80;99.90;;;;;;5091144;28;20538;-62
2022/01/23 09:57:41;;;;;;;25.80;20.40;;;7.70;99.90;;;;;;5091368;28;20936;-62
2022/01/23 10:00:10;;;;;;;26.03;19.70;;;7.80;99.90;;;;;;5090531;28;20870;-62
2022/01/23 10:02:37;;;;;;;26.23;20.37;;;7.80;99.90;;;;;;5090669;28;21199;-62
2022/01/23 10:05:06;;;;;;;24.80;19.27;;;7.80;99.90;;;;;;5090948;28;20446;-62
2022/01/23 10:07:38;;;;;;;28.63;20.43;;;7.90;99.90;;;;;;5090590;28;20445;-62
2022/01/23 10:10:12;;;;;;;27.80;20.67;;;7.80;99.90;;;;;;5090299;28;20450;-62
2022/01/23 10:12:43;;;;;;;25.20;20.03;;;7.70;99.90;;;;;;5090714;28;20836;-62
2022/01/23 10:15:11;;;;;;;26.47;20.00;;;7.70;99.90;;;;;;5090686;28;20525;-62
2022/01/23 10:17:38;;;;;;;27.90;20.30;;;7.40;99.90;;;;;;5090453;28;20438;-62
2022/01/23 10:20:07;;;;;;;24.53;18.23;;;7.40;99.90;;;;;;5090309;28;20438;-62
2022/01/23 10:22:36;;;;;;;23.67;17.27;;;7.40;99.90;;;;;;5089417;28;20514;-62
2022/01/23 10:25:08;;;;;;;24.93;19.20;;;7.50;99.90;;;;;;5090357;28;20454;-62
2022/01/23 10:27:55;;;;;;;22.90;18.10;;;7.70;99.90;;;;;;5090317;28;20439;-62
2022/01/23 10:30:24;;;;;;;24.87;20.80;;;7.80;99.90;;;;;;5089923;28;20438;-62
2022/01/23 10:32:59;;;;;;;23.80;17.53;;;7.90;99.90;;;;;;5090192;28;20462;-62
2022/01/23 10:35:26;;;;;;;24.90;18.83;;;8.00;99.90;;;;;;5090089;28;21339;-63
2022/01/23 10:37:55;;;;;;;21.63;17.60;;;8.20;99.90;;;;;;5090213;28;20442;-62
2022/01/23 10:40:31;;;;;;;21.67;16.67;;;8.30;99.90;;;;;;5089880;28;20446;-62
2022/01/23 10:48:48;;;;;;;18.33;14.20;;;8.20;99.90;;;;;;5046823;28;20943;-62
2022/01/23 10:51:24;;;;;;;18.87;13.70;;;8.10;99.90;;;;;;5079218;28;20453;-62
2022/01/23 10:54:15;;;;;;;18.20;13.90;;;8.20;99.90;;;;;;5089732;28;21078;-62
2022/01/23 10:57:02;;;;;;;18.20;14.70;;;8.10;99.90;;;;;;5084445;28;20451;-62
2022/01/23 10:59:44;;;;;;;15.73;12.23;;;8.10;99.90;;;;;;5089427;28;20445;-62
2022/01/23 11:02:12;;;;;;;14.53;12.10;;;8.10;99.90;;;;;;5089512;28;20521;-62
2022/01/23 11:04:57;;;;;;;13.63;10.77;;;8.10;99.90;;;;;;5089905;28;20442;-62
2022/01/23 11:07:25;;;;;;;14.00;11.30;;;8.20;99.90;;;;;;5089702;28;20438;-63
2022/01/23 11:10:01;;;;;;;13.53;11.30;;;8.30;99.90;;;;;;5089347;28;20478;-63
2022/01/23 11:18:04;;;;;;;15.20;12.23;;;8.00;99.90;;;;;;5089527;28;20426;-63
2022/01/23 11:20:37;;;;;;;15.53;12.63;;;8.10;99.90;;;;;;5088920;28;20449;-62
2022/01/23 11:23:12;;;;;;;14.37;11.67;;;8.30;99.90;;;;;;5089192;28;20467;-62
2022/01/23 11:25:42;;;;;;;15.90;13.50;;;8.60;99.90;;;;;;5089203;28;20932;-62
2022/01/23 11:28:09;;;;;;;16.83;12.53;;;8.60;99.90;;;;;;5089299;28;20873;-63
2022/01/23 11:30:39;;;;;;;17.93;14.10;;;8.90;99.90;;;;;;5089045;28;20442;-63
2022/01/23 11:33:09;;;;;;;17.80;13.20;;;9.00;99.90;;;;;;5089530;28;20520;-63
2022/01/23 11:35:36;;;;;;;18.10;14.50;;;9.00;99.90;;;;;;5089013;28;20454;-64
2022/01/23 11:38:09;;;;;;;15.47;12.80;;;9.10;99.90;;;;;;5089278;28;20449;-63
2022/01/23 11:50:33;;;;;;;17.63;13.87;;;9.20;99.90;;;;;;5088777;28;20458;-63
2022/01/23 11:54:39;;;;;;;16.80;13.10;;;9.30;99.90;;;;;;5089235;28;21082;-64
2022/01/23 11:57:43;;;;;;;18.00;13.87;;;9.60;99.90;;;;;;5088829;28;21171;-63
2022/01/23 12:00:17;;;;;;;16.30;14.03;;;9.80;99.90;;;;;;5088689;28;20533;-63
2022/01/23 12:02:44;;;;;;;15.43;12.23;;;9.90;99.90;;;;;;5088639;28;20482;-63
2022/01/23 12:05:26;;;;;;;16.93;13.73;;;9.90;99.90;;;;;;5088988;28;20479;-63
2022/01/23 12:08:32;;;;;;;14.23;12.23;;;10.00;99.90;;;;;;5088976;28;20453;-63
2022/01/23 12:17:16;;;;;;;14.47;11.70;;;10.00;99.90;;;;;;5088939;28;20963;-63
2022/01/23 12:19:50;;;;;;;16.43;10.90;;;9.80;99.90;;;;;;5089067;28;20469;-63
2022/01/23 12:22:35;;;;;;;16.03;12.27;;;9.80;99.90;;;;;;5088997;28;20490;-64
2022/01/23 12:25:15;;;;;;;13.03;11.10;;;9.80;99.90;;;;;;5088733;28;20493;-63
2022/01/23 12:27:42;;;;;;;13.93;10.53;;;9.90;99.90;;;;;;5088728;28;20442;-63
2022/01/23 12:30:33;;;;;;;12.97;10.77;;;9.90;99.90;;;;;;5088889;28;20439;-63
2022/01/23 12:33:41;;;;;;;11.37;9.37;;;10.00;99.90;;;;;;5078975;28;20474;-63
2022/01/23 12:36:19;;;;;;;12.03;9.93;;;9.70;99.90;;;;;;5088823;28;20828;-63
2022/01/23 12:38:48;;;;;;;15.10;11.57;;;10.00;99.90;;;;;;5088720;28;20519;-63
2022/01/23 12:41:19;;;;;;;12.90;11.03;;;10.00;99.90;;;;;;5088406;28;20482;-63
2022/01/23 12:43:46;;;;;;;12.30;9.63;;;10.00;99.90;;;;;;5088840;28;20454;-63
2022/01/23 12:46:27;;;;;;;12.57;9.90;;;10.00;99.90;;;;;;5090066;28;20940;-63
2022/01/23 12:48:55;;;;;;;13.50;10.13;;;10.10;99.90;;;;;;5092610;28;20457;-63
2022/01/23 12:51:42;;;;;;;12.70;10.73;;;10.30;99.90;;;;;;5092052;28;20455;-63
2022/01/23 12:54:14;;;;;;;10.90;9.63;;;10.40;99.90;;;;;;5092040;28;20444;-64
2022/01/23 12:56:44;;;;;;;11.70;9.50;;;10.30;99.90;;;;;;5092024;28;20454;-63
2022/01/23 12:59:14;;;;;;;10.70;9.13;;;10.00;99.90;;;;;;5091692;28;20458;-64
2022/01/23 13:01:43;;;;;;;12.20;10.53;;;9.80;99.90;;;;;;5092094;28;20573;-63
2022/01/23 13:04:12;;;;;;;10.60;8.33;;;9.90;99.90;;;;;;5091714;28;20442;-64
2022/01/23 13:06:48;;;;;;;11.23;8.80;;;9.60;99.90;;;;;;5091791;28;20542;-64
2022/01/23 13:09:20;;;;;;;10.87;9.50;;;9.40;99.90;;;;;;5091371;28;20446;-63
2022/01/23 13:12:06;;;;;;;12.70;9.87;;;9.20;99.90;;;;;;5091900;28;20496;-63
2022/01/23 13:14:53;;;;;;;9.70;7.80;;;9.00;99.90;;;;;;5091866;28;20462;-63
2022/01/23 13:17:42;;;;;;;10.93;8.07;;;8.80;99.90;;;;;;5091836;28;20443;-63
2022/01/23 13:26:47;;;;;;;5.97;4.23;;;8.60;99.90;;;;;;5085310;28;20488;-63
2022/01/23 13:32:01;;;;;;;6.40;4.37;;;8.30;99.90;;;;;;5091033;28;20956;-63
2022/01/23 13:34:32;;;;;;;6.53;4.90;;;8.20;99.90;;;;;;5091338;28;20526;-63
2022/01/23 13:37:03;;;;;;;7.30;5.20;;;8.20;99.90;;;;;;5091662;28;20451;-63
2022/01/23 13:39:34;;;;;;;6.17;5.40;;;8.20;99.90;;;;;;5091074;28;20450;-63
2022/01/23 13:42:46;;;;;;;7.50;6.20;;;8.10;99.90;;;;;;5091090;28;20489;-63
2022/01/23 13:48:29;;;;;;;9.13;6.40;;;8.10;99.90;;;;;;5091096;28;20414;-63
2022/01/23 13:59:38;;;;;;;6.30;4.93;;;8.00;99.90;;;;;;5090848;28;20449;-63
2022/01/23 14:02:15;;;;;;;5.80;4.10;;;8.00;99.90;;;;;;5090770;28;20589;-63
2022/01/23 14:04:44;;;;;;;7.03;4.90;;;8.10;99.90;;;;;;5091287;28;20458;-62
2022/01/23 14:07:11;;;;;;;6.37;5.23;;;8.10;99.90;;;;;;5093109;28;20454;-64
2022/01/23 14:09:43;;;;;;;7.40;5.20;;;8.10;99.90;;;;;;5097421;28;20856;-62
2022/01/23 14:12:12;;;;;;;6.17;4.80;;;8.00;99.90;;;;;;5090552;28;20494;-63
2022/01/23 14:14:50;;;;;;;8.00;4.87;;;8.00;99.90;;;;;;5095968;28;20525;-64
2022/01/23 14:17:17;;;;;;;8.13;6.40;;;8.00;99.90;;;;;;5094626;28;20529;-65
2022/01/23 14:19:58;;;;;;;9.57;7.43;;;8.00;99.90;;;;;;5092107;28;21499;-63
2022/01/23 14:22:30;;;;;;;9.73;5.60;;;8.20;99.90;;;;;;5106386;27;20487;-64
2022/01/23 14:25:10;;;;;;;6.47;5.07;;;8.10;99.90;;;;;;5098342;27;20453;-64
2022/01/23 14:27:38;;;;;;;6.40;4.97;;;8.00;99.90;;;;;;5093107;27;20442;-64
2022/01/23 14:30:08;;;;;;;8.03;5.63;;;8.00;99.90;;;;;;5108680;27;20449;-65
2022/01/23 14:32:42;;;;;;;5.30;4.20;;;8.00;99.90;;;;;;5104282;27;20541;-64
2022/01/23 14:35:12;;;;;;;4.97;3.27;;;7.80;99.90;;;;;;5096145;28;20982;-63
2022/01/23 14:37:42;;;;;;;8.60;6.00;;;7.70;99.90;;;;;;5099255;27;20946;-63
2022/01/23 14:40:13;;;;;;;5.20;3.80;;;7.60;99.90;;;;;;5098429;27;20563;-63
2022/01/23 14:42:40;;;;;;;5.33;3.30;;;7.60;99.90;;;;;;5104245;27;20485;-65
2022/01/23 14:45:08;;;;;;;4.70;3.30;;;7.60;99.90;;;;;;5086577;28;20545;-63
2022/01/23 14:47:37;;;;;;;5.40;3.17;;;7.40;99.90;;;;;;5091354;28;20874;-64
2022/01/23 14:50:07;;;;;;;6.37;4.17;;;7.30;99.90;;;;;;5094023;28;20443;-64
2022/01/23 14:52:34;;;;;;;6.33;4.13;;;7.30;99.90;;;;;;5093838;28;20528;-64
2022/01/23 14:55:03;;;;;;;5.87;4.00;;;7.40;99.90;;;;;;5094211;28;20456;-63
2022/01/23 14:57:34;;;;;;;5.27;4.03;;;7.20;99.90;;;;;;5092078;28;20474;-63
2022/01/23 15:00:01;;;;;;;4.90;3.70;;;7.20;99.90;;;;;;5100053;28;20452;-64
2022/01/23 15:02:28;;;;;;;4.77;3.10;;;7.10;99.90;;;;;;5103148;28;20477;-64
2022/01/23 15:04:58;;;;;;;4.43;2.80;;;7.00;99.90;;;;;;5106722;28;20446;-64
2022/01/23 15:07:25;;;;;;;5.43;3.87;;;6.90;99.90;;;;;;5104649;28;20818;-63
2022/01/23 15:09:52;;;;;;;4.03;2.77;;;6.90;99.90;;;;;;5101655;28;20458;-64
2022/01/23 15:12:20;;;;;;;4.60;3.40;;;6.90;99.90;;;;;;5108869;28;20450;-64
2022/01/23 15:14:48;;;;;;;8.30;3.83;;;7.00;99.90;;;;;;5090828;28;20574;-64
2022/01/23 15:17:15;;;;;;;4.90;2.87;;;7.00;99.90;;;;;;5105245;28;20464;-64
2022/01/23 15:19:42;;;;;;;4.73;3.53;;;6.90;99.90;;;;;;5090374;28;20455;-64
2022/01/23 15:22:09;;;;;;;4.40;3.70;;;6.90;99.90;;;;;;5093752;28;20941;-66
2022/01/23 15:24:36;;;;;;;5.47;3.87;;;6.80;99.90;;;;;;5092032;28;20541;-63
2022/01/23 15:27:03;;;;;;;5.30;3.63;;;6.80;99.90;;;;;;5103332;28;20472;-64
2022/01/23 15:29:30;;;;;;;3.87;2.63;;;6.70;99.90;;;;;;5106273;28;20434;-64
2022/01/23 15:32:00;;;;;;;5.27;3.10;;;6.70;99.90;;;;;;5107978;28;20462;-65
2022/01/23 15:34:27;;;;;;;4.27;3.10;;;6.70;99.90;;;;;;5107124;28;20442;-66
2022/01/23 15:36:55;;;;;;;3.97;2.97;;;6.50;99.90;;;;;;5104606;28;20453;-64
2022/01/23 15:39:25;;;;;;;3.33;2.37;;;6.50;99.90;;;;;;5107073;28;20903;-64
2022/01/23 15:41:52;;;;;;;4.23;2.57;;;6.40;99.90;;;;;;5107845;28;20476;-64
2022/01/23 15:44:19;;;;;;;3.97;2.87;;;6.30;99.90;;;;;;5107551;28;20438;-65
2022/01/23 15:46:47;;;;;;;3.60;2.47;;;6.30;99.90;;;;;;5107767;28;20937;-64
2022/01/23 15:49:15;;;;;;;4.10;2.43;;;6.40;99.90;;;;;;5103730;28;20454;-65
2022/01/23 15:51:47;;;;;;;3.33;2.20;;;6.30;99.90;;;;;;5103832;28;20552;-65
2022/01/23 15:54:15;;;;;;;3.30;2.20;;;6.30;99.90;;;;;;5104706;28;20451;-65